createdAt,value
2019-05-07T00:01:56.494Z,8.74
2019-05-07T00:04:22.502Z,8.75
2019-05-07T00:06:47.299Z,8.72
2019-05-07T00:09:13.858Z,8.28
2019-05-07T00:11:38.384Z,8.40
2019-05-07T00:14:03.207Z,7.95
2019-05-07T00:16:27.903Z,8.60
2019-05-07T00:18:52.701Z,8.30
2019-05-07T00:21:17.168Z,8.45
2019-05-07T00:23:43.225Z,8.00
2019-05-07T00:26:08.036Z,8.49
2019-05-07T00:28:32.670Z,8.20
2019-05-07T00:30:57.182Z,8.02
2019-05-07T00:33:22.774Z,8.23
2019-05-07T00:35:48.899Z,8.03
2019-05-07T00:38:15.012Z,7.84
2019-05-07T00:40:42.568Z,7.67
2019-05-07T00:43:12.123Z,7.78
2019-05-07T00:45:44.246Z,7.87
2019-05-07T00:48:08.735Z,7.68
2019-05-07T00:50:34.905Z,7.50
2019-05-07T00:52:59.515Z,7.68
2019-05-07T00:55:24.056Z,7.67
2019-05-07T00:57:48.520Z,7.76
2019-05-07T01:00:14.250Z,7.46
2019-05-07T01:02:38.728Z,7.40
2019-05-07T01:05:03.297Z,7.13
2019-05-07T01:07:29.108Z,7.62
2019-05-07T01:09:55.175Z,7.66
2019-05-07T01:12:19.628Z,7.19
2019-05-07T01:14:44.253Z,7.44
2019-05-07T01:17:08.725Z,7.35
2019-05-07T01:19:33.371Z,6.91
2019-05-07T01:21:57.910Z,7.09
2019-05-07T01:24:23.350Z,7.25
2019-05-07T01:26:47.996Z,7.36
2019-05-07T01:29:12.992Z,7.12
2019-05-07T01:31:39.256Z,7.16
2019-05-07T01:34:22.963Z,7.35
2019-05-07T01:36:47.094Z,7.46
2019-05-07T01:39:13.089Z,7.53
2019-05-07T01:41:37.731Z,6.98
2019-05-07T01:44:02.262Z,6.99
2019-05-07T01:46:26.746Z,6.84
2019-05-07T01:48:53.570Z,6.82
2019-05-07T01:51:17.527Z,6.96
2019-05-07T01:53:43.026Z,6.99
2019-05-07T01:56:07.897Z,6.72
2019-05-07T01:58:33.225Z,6.90
2019-05-07T02:00:57.978Z,7.18
2019-05-07T02:03:32.636Z,7.18
2019-05-07T02:06:10.358Z,7.33
2019-05-07T02:08:42.474Z,7.28
2019-05-07T02:11:12.875Z,7.32
2019-05-07T02:13:37.618Z,6.89
2019-05-07T02:16:04.252Z,6.71
2019-05-07T02:18:28.338Z,6.71
2019-05-07T02:20:52.953Z,6.85
2019-05-07T02:23:17.454Z,6.43
2019-05-07T02:25:42.161Z,6.60
2019-05-07T02:28:06.860Z,6.99
2019-05-07T02:30:34.570Z,7.43
2019-05-07T02:32:57.630Z,7.67
2019-05-07T02:35:23.456Z,6.88
2019-05-07T02:37:53.418Z,7.16
2019-05-07T02:40:24.039Z,7.47
2019-05-07T02:42:48.520Z,7.18
2019-05-07T02:45:17.563Z,7.22
2019-05-07T02:47:43.812Z,6.77
2019-05-07T02:50:12.927Z,7.20
2019-05-07T02:52:53.318Z,7.30
2019-05-07T02:55:17.928Z,7.50
2019-05-07T02:57:43.460Z,7.66
2019-05-07T03:00:08.502Z,7.58
2019-05-07T03:02:33.338Z,7.61
2019-05-07T03:04:58.118Z,7.71
2019-05-07T03:07:24.170Z,7.40
2019-05-07T03:09:49.038Z,7.27
2019-05-07T03:12:13.638Z,7.44
2019-05-07T03:14:38.196Z,7.57
2019-05-07T03:17:03.222Z,6.89
2019-05-07T03:19:28.675Z,7.12
2019-05-07T03:21:54.546Z,7.41
2019-05-07T03:24:36.519Z,7.54
2019-05-07T03:27:03.191Z,7.37
2019-05-07T03:29:28.332Z,7.37
2019-05-07T03:31:59.096Z,7.15
2019-05-07T03:34:28.342Z,7.11
2019-05-07T03:37:06.099Z,6.88
2019-05-07T03:39:29.444Z,7.15
2019-05-07T03:41:53.996Z,7.24
2019-05-07T03:44:20.108Z,7.06
2019-05-07T03:46:56.735Z,6.97
2019-05-07T03:49:13.693Z,7.02
2019-05-07T03:51:38.443Z,7.16
2019-05-07T03:54:03.210Z,7.24
2019-05-07T03:56:28.263Z,7.30
2019-05-07T03:58:53.063Z,7.04
2019-05-07T04:01:17.835Z,6.98
2019-05-07T04:03:44.513Z,6.95
2019-05-07T04:06:08.562Z,6.77
2019-05-07T04:08:33.608Z,7.04
2019-05-07T04:10:58.259Z,7.04
2019-05-07T04:13:24.021Z,6.81
2019-05-07T04:15:49.013Z,6.75
2019-05-07T04:18:13.665Z,6.73
2019-05-07T04:20:38.172Z,6.57
2019-05-07T04:23:04.277Z,6.70
2019-05-07T04:25:39.419Z,6.88
2019-05-07T04:28:08.382Z,6.65
2019-05-07T04:30:33.894Z,6.66
2019-05-07T04:33:00.004Z,6.60
2019-05-07T04:35:29.297Z,6.73
2019-05-07T04:37:53.801Z,7.08
2019-05-07T04:40:18.270Z,7.11
2019-05-07T04:42:42.934Z,6.88
2019-05-07T04:45:08.175Z,6.73
2019-05-07T04:47:42.531Z,6.77
2019-05-07T04:49:58.936Z,6.78
2019-05-07T04:52:33.669Z,7.01
2019-05-07T04:54:57.238Z,6.93
2019-05-07T04:57:27.523Z,6.96
2019-05-07T04:59:53.377Z,7.23
2019-05-07T05:02:22.872Z,6.88
2019-05-07T05:04:45.854Z,7.06
2019-05-07T05:07:13.233Z,7.11
2019-05-07T05:09:36.495Z,7.27
2019-05-07T05:12:02.648Z,6.48
2019-05-07T05:14:27.256Z,6.65
2019-05-07T05:16:52.460Z,7.14
2019-05-07T05:19:17.282Z,7.11
2019-05-07T05:21:52.918Z,7.10
2019-05-07T05:24:19.128Z,7.06
2019-05-07T05:26:43.607Z,7.17
2019-05-07T05:29:08.089Z,7.12
2019-05-07T05:31:33.157Z,7.06
2019-05-07T05:33:57.870Z,6.85
2019-05-07T05:36:22.435Z,6.98
2019-05-07T05:38:46.914Z,7.33
2019-05-07T05:41:12.296Z,6.78
2019-05-07T05:43:44.905Z,6.80
2019-05-07T05:46:12.138Z,6.90
2019-05-07T05:48:36.888Z,6.52
2019-05-07T05:51:02.991Z,6.52
2019-05-07T05:53:29.176Z,7.04
2019-05-07T05:55:55.384Z,7.18
2019-05-07T05:58:37.970Z,7.30
2019-05-07T06:01:04.082Z,7.42
2019-05-07T06:03:39.262Z,7.19
2019-05-07T06:06:14.265Z,7.67
2019-05-07T06:08:43.276Z,7.15
2019-05-07T06:11:11.877Z,7.60
2019-05-07T06:13:54.292Z,7.46
2019-05-07T06:16:22.033Z,7.53
2019-05-07T06:18:54.514Z,7.10
2019-05-07T06:21:20.612Z,7.22
2019-05-07T06:23:46.741Z,7.55
2019-05-07T06:26:12.668Z,7.79
2019-05-07T06:28:37.363Z,7.80
2019-05-07T06:31:02.238Z,7.73
2019-05-07T06:33:26.722Z,7.29
2019-05-07T06:35:52.061Z,7.47
2019-05-07T06:38:16.736Z,7.58
2019-05-07T06:40:52.082Z,7.73
2019-05-07T06:43:18.182Z,7.97
2019-05-07T06:45:44.827Z,7.75
2019-05-07T06:48:09.277Z,7.86
2019-05-07T06:50:33.889Z,8.08
2019-05-07T06:52:58.366Z,8.00
2019-05-07T06:55:22.998Z,7.91
2019-05-07T06:57:58.210Z,7.64
2019-05-07T07:00:28.736Z,7.75
2019-05-07T07:03:04.773Z,8.40
2019-05-07T07:05:33.557Z,8.53
2019-05-07T07:08:17.763Z,8.30
2019-05-07T07:11:02.414Z,8.09
2019-05-07T07:13:27.711Z,7.91
2019-05-07T07:15:52.322Z,8.53
2019-05-07T07:18:16.808Z,8.17
2019-05-07T07:20:43.013Z,8.20
2019-05-07T07:23:07.799Z,8.55
2019-05-07T07:25:32.722Z,8.38
2019-05-07T07:27:57.213Z,8.74
2019-05-07T07:30:26.155Z,8.99
2019-05-07T07:32:52.337Z,8.59
2019-05-07T07:35:18.354Z,8.23
2019-05-07T07:37:43.114Z,8.68
2019-05-07T07:40:13.985Z,8.19
2019-05-07T07:42:38.451Z,8.42
2019-05-07T07:45:18.677Z,8.86
2019-05-07T07:47:43.263Z,9.55
2019-05-07T07:50:08.010Z,8.59
2019-05-07T07:52:32.474Z,9.44
2019-05-07T07:54:56.920Z,9.46
2019-05-07T07:57:39.176Z,9.62
2019-05-07T08:00:06.726Z,9.88
2019-05-07T08:02:32.864Z,9.54
2019-05-07T08:04:57.336Z,9.84
2019-05-07T08:07:22.809Z,9.69
2019-05-07T08:09:47.468Z,9.57
2019-05-07T08:12:12.700Z,9.64
2019-05-07T08:14:37.372Z,10.05
2019-05-07T08:17:03.610Z,9.91
2019-05-07T08:19:28.195Z,9.62
2019-05-07T08:21:52.665Z,9.81
2019-05-07T08:24:17.131Z,10.14
2019-05-07T08:26:42.870Z,9.72
2019-05-07T08:29:07.508Z,9.97
2019-05-07T08:31:51.744Z,9.83
2019-05-07T08:34:21.851Z,9.68
2019-05-07T08:36:46.480Z,9.68
2019-05-07T08:39:13.027Z,9.56
2019-05-07T08:41:37.163Z,10.08
2019-05-07T08:44:11.575Z,10.34
2019-05-07T08:46:37.081Z,11.02
2019-05-07T08:49:01.981Z,11.55
2019-05-07T08:51:26.477Z,11.25
2019-05-07T08:54:05.961Z,11.17
2019-05-07T08:56:31.889Z,11.06
2019-05-07T08:58:56.444Z,10.63
2019-05-07T09:01:21.847Z,10.42
2019-05-07T09:03:46.317Z,10.80
2019-05-07T09:06:11.791Z,11.20
2019-05-07T09:08:36.283Z,11.33
2019-05-07T09:11:01.783Z,10.95
2019-05-07T09:13:26.311Z,11.18
2019-05-07T09:15:52.822Z,11.20
2019-05-07T09:18:17.034Z,11.28
2019-05-07T09:20:42.538Z,11.34
2019-05-07T09:23:07.173Z,11.26
2019-05-07T09:25:33.352Z,10.74
2019-05-07T09:27:57.913Z,11.48
2019-05-07T09:30:28.545Z,11.30
2019-05-07T09:33:02.500Z,11.96
2019-05-07T09:35:42.413Z,11.94
2019-05-07T09:38:06.908Z,11.88
2019-05-07T09:40:32.040Z,11.79
2019-05-07T09:42:56.604Z,11.34
2019-05-07T09:45:22.512Z,12.23
2019-05-07T09:47:47.130Z,12.01
2019-05-07T09:50:12.452Z,12.27
2019-05-07T09:52:36.969Z,12.62
2019-05-07T09:55:06.701Z,13.15
2019-05-07T09:57:31.329Z,13.23
2019-05-07T09:59:54.244Z,13.49
2019-05-07T10:02:18.858Z,12.29
2019-05-07T10:04:43.402Z,12.24
2019-05-07T10:07:08.024Z,11.84
2019-05-07T10:09:32.903Z,11.87
2019-05-07T10:12:02.747Z,11.91
2019-05-07T10:14:27.421Z,12.36
2019-05-07T10:17:11.924Z,12.53
2019-05-07T10:19:36.161Z,12.08
2019-05-07T10:22:02.338Z,11.71
2019-05-07T10:24:27.235Z,11.65
2019-05-07T10:26:53.129Z,12.50
2019-05-07T10:29:17.954Z,11.41
2019-05-07T10:31:42.947Z,11.78
2019-05-07T10:34:07.486Z,11.82
2019-05-07T10:36:32.180Z,12.28
2019-05-07T10:38:56.773Z,12.49
2019-05-07T10:41:22.382Z,12.25
2019-05-07T10:43:47.021Z,12.06
2019-05-07T10:46:13.102Z,11.99
2019-05-07T10:48:42.608Z,11.86
2019-05-07T10:51:07.146Z,11.78
2019-05-07T10:53:32.132Z,11.84
2019-05-07T10:55:58.186Z,12.64
2019-05-07T10:58:22.697Z,13.14
2019-05-07T11:00:47.615Z,12.87
2019-05-07T11:03:12.764Z,12.44
2019-05-07T11:05:37.301Z,13.29
2019-05-07T11:08:02.482Z,13.45
2019-05-07T11:10:27.043Z,13.57
2019-05-07T11:12:51.802Z,13.07
2019-05-07T11:15:16.479Z,13.59
2019-05-07T11:18:02.640Z,13.82
2019-05-07T11:20:27.056Z,13.18
2019-05-07T11:22:52.199Z,12.74
2019-05-07T11:25:16.922Z,12.77
2019-05-07T11:27:42.098Z,13.67
2019-05-07T11:30:08.597Z,12.89
2019-05-07T11:32:33.088Z,13.45
2019-05-07T11:34:57.638Z,13.93
2019-05-07T11:37:22.644Z,13.69
2019-05-07T11:39:47.061Z,13.82
2019-05-07T11:42:16.199Z,13.26
2019-05-07T11:44:42.375Z,13.71
2019-05-07T11:47:17.897Z,13.67
2019-05-07T11:50:03.053Z,14.48
2019-05-07T11:52:28.282Z,14.56
2019-05-07T11:54:52.770Z,13.69
2019-05-07T11:57:17.229Z,14.51
2019-05-07T11:59:41.895Z,13.67
2019-05-07T12:02:06.623Z,14.25
2019-05-07T12:04:32.047Z,14.71
2019-05-07T12:06:56.719Z,14.55
2019-05-07T12:09:21.848Z,14.92
2019-05-07T12:11:46.365Z,14.69
2019-05-07T12:14:12.305Z,14.06
2019-05-07T12:16:37.063Z,14.34
2019-05-07T12:19:02.284Z,13.85
2019-05-07T12:21:26.884Z,13.98
2019-05-07T12:23:52.500Z,14.56
2019-05-07T12:26:16.972Z,14.86
2019-05-07T12:28:41.918Z,15.74
2019-05-07T12:31:26.344Z,15.34
2019-05-07T12:34:04.254Z,15.64
2019-05-07T12:36:28.929Z,14.96
2019-05-07T12:38:53.488Z,15.32
2019-05-07T12:41:33.193Z,15.68
2019-05-07T12:43:56.450Z,16.28
2019-05-07T12:46:22.360Z,16.19
2019-05-07T12:48:47.179Z,15.13
2019-05-07T12:51:12.568Z,14.46
2019-05-07T12:53:38.751Z,14.52
2019-05-07T12:56:04.581Z,14.77
2019-05-07T12:58:29.149Z,14.71
2019-05-07T13:00:55.388Z,14.38
2019-05-07T13:03:21.902Z,14.60
2019-05-07T13:05:46.424Z,15.63
2019-05-07T13:08:12.338Z,15.40
2019-05-07T13:10:36.958Z,15.47
2019-05-07T13:13:02.196Z,15.58
2019-05-07T13:15:28.004Z,15.56
2019-05-07T13:17:52.902Z,14.85
2019-05-07T13:20:17.735Z,15.11
2019-05-07T13:22:42.789Z,14.39
2019-05-07T13:25:08.030Z,14.25
2019-05-07T13:27:32.632Z,15.30
2019-05-07T13:29:57.269Z,15.14
2019-05-07T13:32:23.036Z,15.36
2019-05-07T13:34:47.674Z,15.32
2019-05-07T13:37:21.914Z,14.60
2019-05-07T13:39:48.479Z,14.10
2019-05-07T13:42:32.046Z,14.41
2019-05-07T13:45:02.920Z,14.93
2019-05-07T13:47:29.284Z,14.82
2019-05-07T13:49:54.934Z,14.86
2019-05-07T13:52:19.569Z,14.75
2019-05-07T13:54:44.144Z,14.34
2019-05-07T13:57:08.708Z,14.16
2019-05-07T13:59:33.317Z,14.65
2019-05-07T14:01:59.519Z,14.58
2019-05-07T14:04:23.989Z,14.15
2019-05-07T14:06:48.677Z,14.16
2019-05-07T14:09:23.810Z,14.73
2019-05-07T14:11:47.749Z,14.59
2019-05-07T14:14:12.505Z,15.00
2019-05-07T14:16:36.996Z,15.17
2019-05-07T14:19:01.932Z,15.10
2019-05-07T14:21:27.960Z,14.72
2019-05-07T14:23:52.437Z,14.91
2019-05-07T14:26:18.685Z,15.07
2019-05-07T14:28:43.199Z,14.61
2019-05-07T14:31:07.666Z,14.69
2019-05-07T14:33:42.876Z,15.69
2019-05-07T14:36:22.374Z,15.45
2019-05-07T14:38:48.719Z,15.51
2019-05-07T14:41:13.410Z,14.86
2019-05-07T14:43:41.711Z,13.56
2019-05-07T14:46:05.828Z,14.01
2019-05-07T14:48:30.375Z,14.55
2019-05-07T14:50:54.958Z,13.94
2019-05-07T14:53:22.228Z,14.42
2019-05-07T14:55:46.291Z,14.36
2019-05-07T14:58:12.394Z,14.87
2019-05-07T15:00:37.190Z,14.64
2019-05-07T15:03:02.075Z,14.86
2019-05-07T15:05:27.006Z,14.94
2019-05-07T15:07:51.800Z,15.26
2019-05-07T15:10:16.788Z,14.70
2019-05-07T15:12:42.650Z,14.88
2019-05-07T15:15:08.202Z,15.76
2019-05-07T15:17:46.771Z,15.50
2019-05-07T15:20:11.490Z,15.79
2019-05-07T15:22:49.873Z,14.97
2019-05-07T15:25:16.248Z,15.28
2019-05-07T15:27:42.109Z,15.10
2019-05-07T15:30:07.127Z,14.52
2019-05-07T15:32:32.294Z,14.46
2019-05-07T15:34:56.954Z,14.81
2019-05-07T15:37:21.572Z,15.03
2019-05-07T15:39:46.185Z,15.85
2019-05-07T15:42:10.965Z,16.17
2019-05-07T15:44:35.576Z,15.57
2019-05-07T15:47:02.583Z,14.72
2019-05-07T15:49:27.087Z,14.91
2019-05-07T15:51:53.263Z,15.84
2019-05-07T15:54:17.698Z,14.42
2019-05-07T15:56:42.243Z,13.91
2019-05-07T15:59:06.774Z,14.80
2019-05-07T16:01:31.312Z,14.63
2019-05-07T16:03:55.778Z,14.16
2019-05-07T16:06:22.036Z,13.85
2019-05-07T16:08:49.219Z,14.39
2019-05-07T16:11:13.939Z,15.07
2019-05-07T16:13:46.140Z,14.19
2019-05-07T16:16:10.608Z,14.18
2019-05-07T16:18:42.046Z,14.08
2019-05-07T16:21:06.048Z,14.88
2019-05-07T16:23:32.460Z,14.31
2019-05-07T16:25:56.842Z,14.91
2019-05-07T16:28:22.010Z,14.90
2019-05-07T16:30:46.849Z,15.11
2019-05-07T16:33:12.759Z,14.74
2019-05-07T16:35:37.427Z,14.13
2019-05-07T16:38:01.909Z,14.52
2019-05-07T16:40:26.392Z,14.66
2019-05-07T16:42:52.406Z,14.69
2019-05-07T16:45:17.707Z,14.61
2019-05-07T16:47:42.168Z,14.64
2019-05-07T16:50:07.069Z,14.87
2019-05-07T16:52:32.476Z,14.79
2019-05-07T16:54:57.693Z,14.33
2019-05-07T16:57:33.682Z,13.94
2019-05-07T16:59:58.352Z,13.96
2019-05-07T17:02:24.551Z,13.64
2019-05-07T17:05:08.735Z,13.85
2019-05-07T17:07:34.929Z,13.67
2019-05-07T17:09:59.490Z,14.21
2019-05-07T17:12:24.039Z,14.50
2019-05-07T17:14:48.650Z,14.32
2019-05-07T17:17:13.094Z,13.86
2019-05-07T17:19:37.563Z,13.87
2019-05-07T17:22:02.826Z,13.40
2019-05-07T17:24:28.280Z,13.77
2019-05-07T17:26:52.785Z,14.23
2019-05-07T17:29:17.252Z,14.28
2019-05-07T17:31:42.420Z,14.17
2019-05-07T17:34:07.125Z,13.68
2019-05-07T17:36:33.018Z,14.16
2019-05-07T17:38:57.715Z,14.23
2019-05-07T17:41:26.794Z,14.64
2019-05-07T17:43:48.497Z,15.14
2019-05-07T17:46:13.690Z,14.77
2019-05-07T17:48:38.206Z,14.39
2019-05-07T17:51:07.138Z,15.12
2019-05-07T17:53:31.996Z,15.30
2019-05-07T17:55:56.716Z,15.44
2019-05-07T17:58:21.261Z,15.33
2019-05-07T18:00:47.460Z,15.45
2019-05-07T18:03:32.530Z,15.47
2019-05-07T18:05:57.175Z,15.67
2019-05-07T18:08:21.821Z,15.58
2019-05-07T18:10:46.339Z,15.36
2019-05-07T18:13:11.863Z,15.54
2019-05-07T18:15:36.423Z,15.46
2019-05-07T18:18:03.130Z,15.37
2019-05-07T18:20:27.599Z,15.39
2019-05-07T18:22:52.214Z,15.43
2019-05-07T18:25:16.945Z,15.22
2019-05-07T18:27:42.047Z,15.17
2019-05-07T18:30:07.366Z,15.21
2019-05-07T18:32:33.565Z,15.13
2019-05-07T18:34:58.038Z,15.13
2019-05-07T18:37:22.986Z,15.05
2019-05-07T18:39:47.474Z,14.89
2019-05-07T18:42:12.672Z,14.61
2019-05-07T18:44:37.373Z,14.76
2019-05-07T18:47:02.486Z,14.63
2019-05-07T18:49:27.262Z,14.61
2019-05-07T18:51:52.250Z,14.39
2019-05-07T18:54:29.689Z,14.49
2019-05-07T18:56:43.032Z,14.37
2019-05-07T18:59:07.578Z,14.40
2019-05-07T19:01:33.872Z,14.27
2019-05-07T19:03:58.481Z,13.92
2019-05-07T19:06:23.090Z,14.21
2019-05-07T19:08:48.345Z,14.17
2019-05-07T19:11:12.983Z,13.99
2019-05-07T19:13:37.435Z,13.96
2019-05-07T19:16:02.963Z,13.83
2019-05-07T19:18:27.497Z,13.94
2019-05-07T19:20:52.988Z,13.82
2019-05-07T19:23:17.621Z,13.84
2019-05-07T19:25:42.250Z,13.75
2019-05-07T19:28:06.858Z,13.60
2019-05-07T19:30:32.685Z,13.72
2019-05-07T19:32:57.363Z,13.68
2019-05-07T19:35:23.088Z,13.57
2019-05-07T19:37:47.724Z,13.24
2019-05-07T19:40:12.737Z,13.51
2019-05-07T19:42:37.293Z,13.50
2019-05-07T19:45:02.674Z,13.34
2019-05-07T19:47:27.371Z,13.37
2019-05-07T19:49:52.439Z,13.30
2019-05-07T19:52:17.163Z,13.09
2019-05-07T19:54:44.331Z,13.26
2019-05-07T19:57:09.325Z,13.16
2019-05-07T19:59:33.937Z,13.20
2019-05-07T20:02:00.084Z,13.25
2019-05-07T20:04:24.639Z,13.16
2019-05-07T20:06:49.242Z,13.13
2019-05-07T20:09:15.844Z,13.07
2019-05-07T20:11:48.158Z,12.83
2019-05-07T20:14:12.700Z,12.88
2019-05-07T20:16:37.240Z,12.89
2019-05-07T20:19:01.724Z,12.82
2019-05-07T20:21:26.358Z,12.74
2019-05-07T20:23:52.728Z,12.48
2019-05-07T20:26:17.133Z,12.53
2019-05-07T20:28:41.979Z,12.74
2019-05-07T20:31:06.586Z,12.67
2019-05-07T20:33:32.737Z,12.68
2019-05-07T20:35:57.385Z,12.62
2019-05-07T20:38:21.938Z,12.62
2019-05-07T20:40:46.587Z,12.59
2019-05-07T20:43:12.626Z,12.60
2019-05-07T20:45:37.370Z,12.51
2019-05-07T20:48:02.551Z,12.37
2019-05-07T20:50:27.417Z,12.39
2019-05-07T20:52:52.474Z,12.29
2019-05-07T20:55:37.029Z,12.25
2019-05-07T20:58:03.148Z,12.31
2019-05-07T21:00:28.985Z,12.28
2019-05-07T21:03:12.502Z,12.24
2019-05-07T21:05:37.095Z,12.25
2019-05-07T21:08:01.686Z,12.10
2019-05-07T21:10:26.161Z,12.21
2019-05-07T21:12:51.754Z,12.13
2019-05-07T21:15:16.598Z,12.04
2019-05-07T21:17:42.886Z,12.02
2019-05-07T21:20:07.523Z,11.77
2019-05-07T21:22:32.096Z,11.73
2019-05-07T21:24:56.544Z,11.72
2019-05-07T21:27:21.074Z,11.82
2019-05-07T21:29:45.544Z,11.83
2019-05-07T21:32:12.305Z,11.87
2019-05-07T21:34:36.232Z,11.64
2019-05-07T21:37:03.069Z,11.72
2019-05-07T21:39:26.947Z,11.62
2019-05-07T21:41:52.034Z,11.47
2019-05-07T21:44:16.680Z,11.59
2019-05-07T21:46:42.584Z,11.65
2019-05-07T21:49:07.287Z,11.42
2019-05-07T21:51:31.813Z,11.51
2019-05-07T21:53:57.933Z,11.50
2019-05-07T21:56:27.037Z,11.08
2019-05-07T21:58:56.017Z,11.39
2019-05-07T22:01:34.179Z,11.33
2019-05-07T22:03:58.786Z,11.24
2019-05-07T22:06:23.317Z,11.11
2019-05-07T22:08:47.915Z,11.23
2019-05-07T22:11:12.575Z,11.14
2019-05-07T22:13:37.071Z,11.08
2019-05-07T22:16:02.533Z,11.05
2019-05-07T22:18:27.273Z,10.98
2019-05-07T22:20:52.269Z,11.12
2019-05-07T22:23:16.886Z,10.88
2019-05-07T22:25:42.166Z,10.97
2019-05-07T22:30:59.131Z,10.87
2019-05-07T22:33:41.767Z,10.91
2019-05-07T22:36:07.748Z,10.57
2019-05-07T22:38:32.442Z,10.79
2019-05-07T22:40:56.863Z,10.87
2019-05-07T22:43:22.579Z,10.86
2019-05-07T22:45:47.177Z,10.86
2019-05-07T22:48:12.256Z,10.86
2019-05-07T22:50:37.225Z,10.95
2019-05-07T22:53:02.042Z,10.82
2019-05-07T22:55:26.809Z,10.89
2019-05-07T22:58:04.970Z,10.79
2019-05-07T23:00:34.076Z,10.87
2019-05-07T23:02:58.556Z,10.81
2019-05-07T23:05:23.139Z,10.69
2019-05-07T23:07:47.586Z,10.69
2019-05-07T23:10:12.305Z,10.71
2019-05-07T23:12:36.846Z,10.60
2019-05-07T23:15:03.038Z,10.62
2019-05-07T23:17:27.511Z,10.61
2019-05-07T23:19:54.960Z,10.47
2019-05-07T23:22:18.200Z,10.44
2019-05-07T23:24:42.727Z,10.45
2019-05-07T23:27:07.270Z,10.51
2019-05-07T23:29:33.062Z,10.39
2019-05-07T23:31:57.673Z,10.24
2019-05-07T23:34:22.371Z,10.26
2019-05-07T23:36:47.022Z,10.29
2019-05-07T23:39:13.153Z,10.17
2019-05-07T23:41:45.086Z,10.23
2019-05-07T23:44:12.507Z,10.25
2019-05-07T23:46:36.500Z,10.19
2019-05-07T23:49:02.883Z,10.09
2019-05-07T23:51:27.359Z,9.99
2019-05-07T23:53:51.933Z,9.80
2019-05-07T23:56:16.492Z,9.93
2019-05-07T23:58:41.948Z,9.93
